createdAt,value
2019-01-30T00:00:58.870Z,8.73
2019-01-30T00:03:03.771Z,12.20
2019-01-30T00:05:09.470Z,14.23
2019-01-30T00:07:14.569Z,9.23
2019-01-30T00:09:19.519Z,9.10
2019-01-30T00:11:24.244Z,10.87
2019-01-30T00:13:29.064Z,11.43
2019-01-30T00:15:33.897Z,10.40
2019-01-30T00:17:38.670Z,10.30
2019-01-30T00:19:43.497Z,8.83
2019-01-30T00:21:48.305Z,10.93
2019-01-30T00:23:53.780Z,11.63
2019-01-30T00:25:58.909Z,10.03
2019-01-30T00:28:03.744Z,15.87
2019-01-30T00:30:10.269Z,12.13
2019-01-30T00:32:15.242Z,11.00
2019-01-30T00:34:20.008Z,14.87
2019-01-30T00:36:24.925Z,12.77
2019-01-30T00:38:29.898Z,11.43
2019-01-30T00:40:34.635Z,8.83
2019-01-30T00:42:39.442Z,13.20
2019-01-30T00:44:44.302Z,10.23
2019-01-30T00:46:49.055Z,13.60
2019-01-30T00:48:53.833Z,12.67
2019-01-30T00:50:58.658Z,14.10
2019-01-30T00:53:03.502Z,11.23
2019-01-30T00:55:08.546Z,10.43
2019-01-30T00:57:13.402Z,8.70
2019-01-30T00:59:18.496Z,14.10
2019-01-30T01:01:31.606Z,13.07
2019-01-30T01:03:36.918Z,15.70
2019-01-30T01:09:23.350Z,14.30
2019-01-30T01:11:28.296Z,10.13
2019-01-30T01:13:33.510Z,9.37
2019-01-30T01:15:38.611Z,9.77
2019-01-30T01:17:43.837Z,14.67
2019-01-30T01:19:48.774Z,13.40
2019-01-30T01:21:53.832Z,10.43
2019-01-30T01:23:58.967Z,13.00
2019-01-30T01:26:03.768Z,13.50
2019-01-30T01:28:08.957Z,11.17
2019-01-30T01:30:25.348Z,12.30
2019-01-30T01:32:28.736Z,11.00
2019-01-30T01:34:34.710Z,10.00
2019-01-30T01:36:39.667Z,11.90
2019-01-30T01:38:44.646Z,12.30
2019-01-30T01:40:49.678Z,15.97
2019-01-30T01:42:54.588Z,14.73
2019-01-30T01:44:59.484Z,16.60
2019-01-30T01:47:04.625Z,13.20
2019-01-30T01:49:09.721Z,8.53
2019-01-30T01:51:14.605Z,9.33
2019-01-30T01:53:19.870Z,9.10
2019-01-30T01:55:24.808Z,14.23
2019-01-30T01:57:29.714Z,9.43
2019-01-30T01:59:34.892Z,11.00
2019-01-30T02:01:40.153Z,8.93
2019-01-30T02:03:45.673Z,12.07
2019-01-30T02:05:50.577Z,12.13
2019-01-30T02:07:55.685Z,10.60
2019-01-30T02:10:00.854Z,10.53
2019-01-30T02:12:06.097Z,12.83
2019-01-30T02:14:11.116Z,14.37
2019-01-30T02:16:16.343Z,10.87
2019-01-30T02:18:21.238Z,12.50
2019-01-30T02:20:29.123Z,11.27
2019-01-30T02:22:34.262Z,10.83
2019-01-30T02:24:39.201Z,14.70
2019-01-30T02:26:44.216Z,10.30
2019-01-30T02:28:49.090Z,14.47
2019-01-30T02:30:53.958Z,18.70
2019-01-30T02:32:59.250Z,12.37
2019-01-30T02:35:04.088Z,12.20
2019-01-30T02:37:27.806Z,11.80
2019-01-30T02:39:32.547Z,12.63
2019-01-30T02:41:37.431Z,16.33
2019-01-30T02:43:42.177Z,11.77
2019-01-30T02:45:47.939Z,12.20
2019-01-30T02:47:52.670Z,10.40
2019-01-30T02:49:57.445Z,13.73
2019-01-30T02:52:02.189Z,10.60
2019-01-30T02:54:07.074Z,14.47
2019-01-30T02:56:11.819Z,14.43
2019-01-30T02:58:16.873Z,9.00
2019-01-30T03:00:27.318Z,10.40
2019-01-30T03:02:32.466Z,12.83
2019-01-30T03:04:37.569Z,11.00
2019-01-30T03:06:42.414Z,9.50
2019-01-30T03:08:47.263Z,10.50
2019-01-30T03:10:51.967Z,12.17
2019-01-30T03:12:56.785Z,9.40
2019-01-30T03:15:01.562Z,11.20
2019-01-30T03:17:06.332Z,7.70
2019-01-30T03:19:11.086Z,12.23
2019-01-30T03:21:15.822Z,22.33
2019-01-30T03:23:20.529Z,9.27
2019-01-30T03:25:25.753Z,8.13
2019-01-30T03:27:30.775Z,11.40
2019-01-30T03:29:35.810Z,9.33
2019-01-30T03:31:40.663Z,14.33
2019-01-30T03:33:45.405Z,10.43
2019-01-30T03:35:50.477Z,10.83
2019-01-30T03:37:56.872Z,10.33
2019-01-30T03:40:01.652Z,14.53
2019-01-30T03:42:07.727Z,10.40
2019-01-30T03:44:13.068Z,8.57
2019-01-30T03:46:18.654Z,10.93
2019-01-30T03:48:23.762Z,13.43
2019-01-30T03:50:30.494Z,7.30
2019-01-30T03:52:35.561Z,12.07
2019-01-30T03:54:41.075Z,8.47
2019-01-30T03:56:46.046Z,10.57
2019-01-30T03:58:50.961Z,10.20
2019-01-30T04:00:55.925Z,7.47
2019-01-30T04:03:01.319Z,9.47
2019-01-30T04:05:07.037Z,8.80
2019-01-30T04:07:12.017Z,10.53
2019-01-30T04:09:17.328Z,7.53
2019-01-30T04:11:22.499Z,8.23
2019-01-30T04:13:27.262Z,11.17
2019-01-30T04:15:33.087Z,11.60
2019-01-30T04:17:38.246Z,8.77
2019-01-30T04:19:43.376Z,12.57
2019-01-30T04:21:48.441Z,7.30
2019-01-30T04:23:53.296Z,12.67
2019-01-30T04:25:58.256Z,10.50
2019-01-30T04:28:03.112Z,14.87
2019-01-30T04:30:11.352Z,8.47
2019-01-30T04:32:16.410Z,9.10
2019-01-30T04:34:21.164Z,11.00
2019-01-30T04:36:26.130Z,9.13
2019-01-30T04:38:31.240Z,8.60
2019-01-30T04:40:35.987Z,8.63
2019-01-30T04:42:40.853Z,12.73
2019-01-30T04:44:46.060Z,9.00
2019-01-30T04:46:50.903Z,11.37
2019-01-30T04:48:55.678Z,13.10
2019-01-30T04:51:00.807Z,8.13
2019-01-30T04:53:05.663Z,6.33
2019-01-30T04:55:11.516Z,7.30
2019-01-30T04:57:16.363Z,8.10
2019-01-30T04:59:21.120Z,8.57
2019-01-30T05:01:26.084Z,10.50
2019-01-30T05:03:30.899Z,7.47
2019-01-30T05:05:35.650Z,8.57
2019-01-30T05:07:40.886Z,9.37
2019-01-30T05:09:45.965Z,8.23
2019-01-30T05:11:50.826Z,8.63
2019-01-30T05:13:55.965Z,13.13
2019-01-30T05:16:24.125Z,7.87
2019-01-30T05:18:29.409Z,9.33
2019-01-30T05:20:34.134Z,8.53
2019-01-30T05:22:38.924Z,11.90
2019-01-30T05:24:44.063Z,8.30
2019-01-30T05:26:48.758Z,7.17
2019-01-30T05:28:53.865Z,7.40
2019-01-30T05:30:58.636Z,8.33
2019-01-30T05:33:03.354Z,8.53
2019-01-30T05:35:08.452Z,15.70
2019-01-30T05:37:13.146Z,9.63
2019-01-30T05:39:18.256Z,7.77
2019-01-30T05:41:23.255Z,12.13
2019-01-30T05:43:28.010Z,11.60
2019-01-30T05:45:32.883Z,9.80
2019-01-30T05:47:37.590Z,9.20
2019-01-30T05:49:42.518Z,7.53
2019-01-30T05:51:47.611Z,12.70
2019-01-30T05:53:52.404Z,8.73
2019-01-30T05:55:57.488Z,9.53
2019-01-30T05:58:02.916Z,8.30
2019-01-30T06:00:12.061Z,8.90
2019-01-30T06:02:17.673Z,7.57
2019-01-30T06:04:22.601Z,10.23
2019-01-30T06:06:27.352Z,7.47
2019-01-30T06:08:32.120Z,6.93
2019-01-30T06:10:36.899Z,5.73
2019-01-30T06:12:41.593Z,13.20
2019-01-30T06:14:46.646Z,9.37
2019-01-30T06:16:51.397Z,10.73
2019-01-30T06:18:57.438Z,9.87
2019-01-30T06:21:03.721Z,9.50
2019-01-30T06:23:08.609Z,13.00
2019-01-30T06:25:13.952Z,11.53
2019-01-30T06:27:19.602Z,9.40
2019-01-30T06:29:24.449Z,14.93
2019-01-30T06:31:29.201Z,9.73
2019-01-30T06:33:34.046Z,12.40
2019-01-30T06:35:38.777Z,13.93
2019-01-30T06:37:43.646Z,9.40
2019-01-30T06:39:48.693Z,8.20
2019-01-30T06:41:53.717Z,9.70
2019-01-30T06:43:58.498Z,10.67
2019-01-30T06:46:03.180Z,9.33
2019-01-30T06:48:08.227Z,8.47
2019-01-30T06:50:13.203Z,8.17
2019-01-30T06:52:17.946Z,6.67
2019-01-30T06:54:22.669Z,7.77
2019-01-30T06:56:27.506Z,7.73
2019-01-30T06:58:32.240Z,11.10
2019-01-30T07:00:37.332Z,7.63
2019-01-30T07:02:42.015Z,9.07
2019-01-30T07:04:46.800Z,7.43
2019-01-30T07:06:51.552Z,9.13
2019-01-30T07:08:56.253Z,9.60
2019-01-30T07:11:10.412Z,11.73
2019-01-30T07:13:07.984Z,8.73
2019-01-30T07:15:12.961Z,9.57
2019-01-30T07:17:18.051Z,7.60
2019-01-30T07:19:22.777Z,11.07
2019-01-30T07:21:27.578Z,9.30
2019-01-30T07:23:34.297Z,16.10
2019-01-30T07:25:38.996Z,7.97
2019-01-30T07:27:43.876Z,9.10
2019-01-30T07:29:48.606Z,11.00
2019-01-30T07:32:10.823Z,11.97
2019-01-30T07:34:18.753Z,9.00
2019-01-30T07:36:23.809Z,6.83
2019-01-30T07:38:28.858Z,6.80
2019-01-30T07:40:33.575Z,9.10
2019-01-30T07:42:38.310Z,9.50
2019-01-30T07:44:50.447Z,7.60
2019-01-30T07:46:49.404Z,9.00
2019-01-30T07:48:54.842Z,8.93
2019-01-30T07:50:59.609Z,8.40
2019-01-30T07:53:04.445Z,10.60
2019-01-30T07:55:11.396Z,11.70
2019-01-30T07:57:16.132Z,11.20
2019-01-30T07:59:20.893Z,8.20
2019-01-30T08:01:25.647Z,10.43
2019-01-30T08:03:30.417Z,8.97
2019-01-30T08:05:35.372Z,8.40
2019-01-30T08:07:40.426Z,9.47
2019-01-30T08:09:45.254Z,8.83
2019-01-30T08:11:50.313Z,8.77
2019-01-30T08:13:55.051Z,8.47
2019-01-30T08:15:59.842Z,7.70
2019-01-30T08:18:04.699Z,10.10
2019-01-30T08:20:11.835Z,8.90
2019-01-30T08:22:16.627Z,9.13
2019-01-30T08:24:21.623Z,14.40
2019-01-30T08:26:26.355Z,7.93
2019-01-30T08:28:31.509Z,9.87
2019-01-30T08:30:36.406Z,9.70
2019-01-30T08:32:41.313Z,13.30
2019-01-30T08:34:46.104Z,12.80
2019-01-30T08:36:50.881Z,18.57
2019-01-30T08:38:56.083Z,16.73
2019-01-30T08:41:00.795Z,9.90
2019-01-30T08:43:05.864Z,15.77
2019-01-30T08:45:14.278Z,11.90
2019-01-30T08:47:19.016Z,11.03
2019-01-30T08:49:23.758Z,12.10
2019-01-30T08:51:28.541Z,13.37
2019-01-30T08:53:33.467Z,11.50
2019-01-30T08:55:38.203Z,9.87
2019-01-30T08:57:43.474Z,11.07
2019-01-30T08:59:48.276Z,13.13
2019-01-30T09:01:53.096Z,8.90
2019-01-30T09:03:57.875Z,11.57
2019-01-30T09:06:02.568Z,10.53
2019-01-30T09:08:08.874Z,8.60
2019-01-30T09:10:21.266Z,14.13
2019-01-30T09:12:26.305Z,9.63
2019-01-30T09:14:31.362Z,10.53
2019-01-30T09:16:36.085Z,11.30
2019-01-30T09:18:41.192Z,14.03
2019-01-30T09:20:45.933Z,14.10
2019-01-30T09:22:51.093Z,10.90
2019-01-30T09:24:55.897Z,15.07
2019-01-30T09:27:04.945Z,11.43
2019-01-30T09:29:18.284Z,14.70
2019-01-30T09:31:23.379Z,9.97
2019-01-30T09:36:02.330Z,15.13
2019-01-30T09:38:07.665Z,11.30
2019-01-30T09:40:13.070Z,14.17
2019-01-30T09:42:37.262Z,13.03
2019-01-30T09:44:42.047Z,11.30
2019-01-30T09:46:49.779Z,15.33
2019-01-30T09:48:54.522Z,11.87
2019-01-30T09:51:13.589Z,17.93
2019-01-30T09:53:16.956Z,12.30
2019-01-30T09:55:21.921Z,16.23
2019-01-30T09:57:26.663Z,11.83
2019-01-30T09:59:31.745Z,12.13
2019-01-30T10:01:36.531Z,13.30
2019-01-30T10:03:41.269Z,13.70
2019-01-30T10:05:46.064Z,13.67
2019-01-30T10:07:50.846Z,13.37
2019-01-30T10:09:55.545Z,17.83
2019-01-30T10:12:00.335Z,9.07
2019-01-30T10:14:05.212Z,11.73
2019-01-30T10:16:17.592Z,14.80
2019-01-30T10:18:22.438Z,14.63
2019-01-30T10:20:27.919Z,13.17
2019-01-30T10:22:32.999Z,12.93
2019-01-30T10:24:37.722Z,15.83
2019-01-30T10:26:43.031Z,14.10
2019-01-30T10:30:59.056Z,14.67
2019-01-30T10:33:04.444Z,16.10
2019-01-30T10:35:09.314Z,14.07
2019-01-30T10:37:14.177Z,12.40
2019-01-30T10:39:19.239Z,12.37
2019-01-30T10:41:24.040Z,12.17
2019-01-30T10:43:28.804Z,11.83
2019-01-30T10:45:33.677Z,11.50
2019-01-30T10:47:38.391Z,12.10
2019-01-30T10:49:43.113Z,11.77
2019-01-30T10:51:47.859Z,15.00
2019-01-30T10:53:52.625Z,14.67
2019-01-30T10:55:57.371Z,14.87
2019-01-30T10:58:04.128Z,14.53
2019-01-30T11:00:13.867Z,11.00
2019-01-30T11:02:18.697Z,17.20
2019-01-30T11:04:23.771Z,16.80
2019-01-30T11:06:28.539Z,14.47
2019-01-30T11:08:34.536Z,17.30
2019-01-30T11:10:39.692Z,14.60
2019-01-30T11:12:44.670Z,12.90
2019-01-30T11:14:49.411Z,15.57
2019-01-30T11:16:54.150Z,11.07
2019-01-30T11:18:59.287Z,16.40
2019-01-30T11:21:05.956Z,17.23
2019-01-30T11:23:11.491Z,15.87
2019-01-30T11:25:19.054Z,14.83
2019-01-30T11:27:23.868Z,14.57
2019-01-30T11:29:28.615Z,15.00
2019-01-30T11:31:33.487Z,20.03
2019-01-30T11:33:38.732Z,22.40
2019-01-30T11:35:43.517Z,20.97
2019-01-30T11:37:48.375Z,18.97
2019-01-30T11:39:53.181Z,18.77
2019-01-30T11:41:57.940Z,20.73
2019-01-30T11:44:02.744Z,16.83
2019-01-30T11:46:07.581Z,20.57
2019-01-30T11:48:12.402Z,17.60
2019-01-30T11:50:17.353Z,19.87
2019-01-30T11:52:22.447Z,20.30
2019-01-30T11:54:27.209Z,20.47
2019-01-30T11:56:32.352Z,22.97
2019-01-30T11:58:37.060Z,26.90
2019-01-30T12:00:55.165Z,26.30
2019-01-30T12:03:00.525Z,32.93
2019-01-30T12:05:05.494Z,31.87
2019-01-30T12:07:10.506Z,35.53
2019-01-30T12:09:15.333Z,33.00
2019-01-30T12:11:20.104Z,31.93
2019-01-30T12:13:24.864Z,29.17
2019-01-30T12:15:29.821Z,27.83
2019-01-30T12:17:34.608Z,28.10
2019-01-30T12:19:39.465Z,26.67
2019-01-30T12:21:44.265Z,21.43
2019-01-30T12:23:49.074Z,20.33
2019-01-30T12:25:53.854Z,24.00
2019-01-30T12:27:58.598Z,22.73
2019-01-30T12:30:03.301Z,22.97
2019-01-30T12:32:08.251Z,23.50
2019-01-30T12:34:12.953Z,23.17
2019-01-30T12:36:18.091Z,23.93
2019-01-30T12:38:23.237Z,25.00
2019-01-30T12:40:28.123Z,26.90
2019-01-30T12:42:32.898Z,34.70
2019-01-30T12:44:37.915Z,37.77
2019-01-30T12:46:42.836Z,31.30
2019-01-30T12:48:52.160Z,32.53
2019-01-30T12:50:56.941Z,33.03
2019-01-30T12:53:16.212Z,30.87
2019-01-30T12:55:21.376Z,29.27
2019-01-30T12:57:26.157Z,34.67
2019-01-30T12:59:31.131Z,37.07
2019-01-30T13:01:36.161Z,31.93
2019-01-30T13:03:40.881Z,32.83
2019-01-30T13:05:45.665Z,41.20
2019-01-30T13:07:50.498Z,36.43
2019-01-30T13:09:55.536Z,37.53
2019-01-30T13:12:00.600Z,33.70
2019-01-30T13:14:05.627Z,29.07
2019-01-30T13:16:10.369Z,34.83
2019-01-30T13:18:18.489Z,34.50
2019-01-30T13:20:23.280Z,36.87
2019-01-30T13:22:29.163Z,29.27
2019-01-30T13:24:38.458Z,36.80
2019-01-30T13:26:43.279Z,34.23
2019-01-30T13:28:48.311Z,32.27
2019-01-30T13:30:53.138Z,27.27
2019-01-30T13:32:57.955Z,32.00
2019-01-30T13:35:03.255Z,28.83
2019-01-30T13:37:08.124Z,32.53
2019-01-30T13:39:13.272Z,33.40
2019-01-30T13:41:18.095Z,33.43
2019-01-30T13:43:22.934Z,34.63
2019-01-30T13:45:28.195Z,34.33
2019-01-30T13:47:41.073Z,30.07
2019-01-30T13:49:45.888Z,33.00
2019-01-30T13:51:51.071Z,30.20
2019-01-30T13:53:55.897Z,23.33
2019-01-30T13:56:01.800Z,29.40
2019-01-30T13:58:07.449Z,24.60
2019-01-30T14:00:16.669Z,28.70
2019-01-30T14:02:21.568Z,23.80
2019-01-30T14:04:26.766Z,22.27
2019-01-30T14:06:31.583Z,26.10
2019-01-30T14:08:36.325Z,25.27
2019-01-30T14:10:41.262Z,23.33
2019-01-30T14:12:46.086Z,33.57
2019-01-30T14:14:51.197Z,31.43
2019-01-30T14:16:55.935Z,31.60
2019-01-30T14:19:01.201Z,34.07
2019-01-30T14:21:05.959Z,34.60
2019-01-30T14:23:10.793Z,27.30
2019-01-30T14:25:16.312Z,30.90
2019-01-30T14:27:21.019Z,31.63
2019-01-30T14:29:26.000Z,27.90
2019-01-30T14:31:31.069Z,60.50
2019-01-30T14:33:36.129Z,324.23
2019-01-30T14:35:56.912Z,197.67
2019-01-30T14:38:01.901Z,137.77
2019-01-30T14:40:08.575Z,81.03
2019-01-30T14:42:14.062Z,122.13
2019-01-30T14:44:18.804Z,119.07
2019-01-30T14:46:23.932Z,94.03
2019-01-30T14:48:28.694Z,293.50
2019-01-30T14:50:33.504Z,221.87
2019-01-30T14:52:39.272Z,118.07
2019-01-30T14:54:44.837Z,95.73
2019-01-30T14:56:49.914Z,48.07
2019-01-30T14:58:54.994Z,58.97
2019-01-30T15:01:00.035Z,47.40
2019-01-30T15:03:05.088Z,34.40
2019-01-30T15:05:21.807Z,30.70
2019-01-30T15:07:28.126Z,27.03
2019-01-30T15:09:24.570Z,29.60
2019-01-30T15:11:29.657Z,32.63
2019-01-30T15:13:34.386Z,30.77
2019-01-30T15:15:39.191Z,31.00
2019-01-30T15:17:43.971Z,34.43
2019-01-30T15:19:48.995Z,34.83
2019-01-30T15:21:56.791Z,35.47
2019-01-30T15:24:00.359Z,40.63
2019-01-30T15:26:06.180Z,36.30
2019-01-30T15:28:11.302Z,39.40
2019-01-30T15:30:24.241Z,34.87
2019-01-30T15:32:31.674Z,34.70
2019-01-30T15:34:44.759Z,35.70
2019-01-30T15:36:49.509Z,39.53
2019-01-30T15:40:03.163Z,38.53
2019-01-30T15:42:35.779Z,37.77
2019-01-30T15:45:11.492Z,36.90
2019-01-30T15:47:20.649Z,37.93
2019-01-30T15:49:41.002Z,44.87
2019-01-30T15:52:15.325Z,30.23
2019-01-30T15:54:35.796Z,34.50
2019-01-30T15:57:22.891Z,36.87
2019-01-30T15:59:27.693Z,39.93
2019-01-30T16:01:37.389Z,32.07
2019-01-30T16:03:42.126Z,33.73
2019-01-30T16:05:47.259Z,38.93
2019-01-30T16:07:52.135Z,35.40
2019-01-30T16:09:58.794Z,36.30
2019-01-30T16:12:03.520Z,35.93
2019-01-30T16:14:08.495Z,34.73
2019-01-30T16:16:13.816Z,36.80
2019-01-30T16:18:18.761Z,37.90
2019-01-30T16:20:24.046Z,41.47
2019-01-30T16:22:28.826Z,35.40
2019-01-30T16:26:44.477Z,33.53
2019-01-30T16:28:49.581Z,34.87
2019-01-30T16:30:54.334Z,34.23
2019-01-30T16:32:59.036Z,36.07
2019-01-30T16:35:05.144Z,37.47
2019-01-30T16:37:10.077Z,39.77
2019-01-30T16:39:14.761Z,38.93
2019-01-30T16:41:19.657Z,35.53
2019-01-30T16:43:24.381Z,35.10
2019-01-30T16:45:29.416Z,42.30
2019-01-30T16:47:34.229Z,35.83
2019-01-30T16:49:38.984Z,43.10
2019-01-30T16:51:43.802Z,42.87
2019-01-30T16:53:49.123Z,38.50
2019-01-30T16:55:54.058Z,38.00
2019-01-30T16:57:59.034Z,44.13
2019-01-30T17:00:04.822Z,42.37
2019-01-30T17:02:09.597Z,42.60
2019-01-30T17:04:14.405Z,54.20
2019-01-30T17:06:19.335Z,46.60
2019-01-30T17:08:24.257Z,39.77
2019-01-30T17:10:29.441Z,48.57
2019-01-30T17:12:34.810Z,52.37
2019-01-30T17:14:39.749Z,50.77
2019-01-30T17:16:44.723Z,55.33
2019-01-30T17:18:49.639Z,55.07
2019-01-30T17:20:56.841Z,49.60
2019-01-30T17:23:01.942Z,58.97
2019-01-30T17:25:07.766Z,54.97
2019-01-30T17:27:12.752Z,69.90
2019-01-30T17:29:17.690Z,66.77
2019-01-30T17:31:26.107Z,61.70
2019-01-30T17:33:31.176Z,67.90
2019-01-30T17:35:36.317Z,61.27
2019-01-30T17:37:41.320Z,60.33
2019-01-30T17:39:46.468Z,69.20
2019-01-30T17:41:51.272Z,63.87
2019-01-30T17:43:56.077Z,48.83
2019-01-30T17:46:01.232Z,50.17
2019-01-30T17:48:07.084Z,51.43
2019-01-30T17:50:13.879Z,59.83
2019-01-30T17:52:19.000Z,51.03
2019-01-30T17:54:43.136Z,58.07
2019-01-30T17:56:48.635Z,55.67
2019-01-30T17:58:53.413Z,43.53
2019-01-30T18:01:02.326Z,50.40
2019-01-30T18:03:07.291Z,95.23
2019-01-30T18:05:12.325Z,57.47
2019-01-30T18:07:17.097Z,49.80
2019-01-30T18:09:22.022Z,47.30
2019-01-30T18:11:27.094Z,42.90
2019-01-30T18:13:45.228Z,43.60
2019-01-30T18:15:52.631Z,56.60
2019-01-30T18:18:00.813Z,49.30
2019-01-30T18:20:08.105Z,40.80
2019-01-30T18:22:13.312Z,47.07
2019-01-30T18:24:18.361Z,51.53
2019-01-30T18:26:23.104Z,49.40
2019-01-30T18:28:28.024Z,43.30
2019-01-30T18:30:33.070Z,45.93
2019-01-30T18:32:38.142Z,43.67
2019-01-30T18:34:42.880Z,47.20
2019-01-30T18:36:48.029Z,48.10
2019-01-30T18:38:52.889Z,50.80
2019-01-30T18:41:08.795Z,44.87
2019-01-30T18:43:14.179Z,46.60
2019-01-30T18:45:23.914Z,50.20
2019-01-30T18:47:28.781Z,45.83
2019-01-30T18:49:35.392Z,50.37
2019-01-30T18:51:40.286Z,49.43
2019-01-30T18:53:46.066Z,51.00
2019-01-30T18:55:52.980Z,49.80
2019-01-30T18:57:59.341Z,50.53
2019-01-30T19:00:06.503Z,50.90
2019-01-30T19:02:13.546Z,52.97
2019-01-30T19:04:19.127Z,54.20
2019-01-30T19:06:24.018Z,52.97
2019-01-30T19:08:31.430Z,50.77
2019-01-30T19:10:39.014Z,56.23
2019-01-30T19:12:47.422Z,54.17
2019-01-30T19:14:53.248Z,55.20
2019-01-30T19:17:19.719Z,53.00
2019-01-30T19:19:25.138Z,51.63
2019-01-30T19:21:36.298Z,51.07
2019-01-30T19:23:44.559Z,48.77
2019-01-30T19:25:50.672Z,46.80
2019-01-30T19:27:56.316Z,45.87
2019-01-30T19:30:04.335Z,43.77
2019-01-30T19:32:08.945Z,46.03
2019-01-30T19:34:14.270Z,44.10
2019-01-30T19:36:19.269Z,51.87
2019-01-30T19:38:24.679Z,41.63
2019-01-30T19:40:30.130Z,42.40
2019-01-30T19:42:35.150Z,41.93
2019-01-30T19:44:40.038Z,42.50
2019-01-30T19:46:45.654Z,39.97
2019-01-30T19:48:50.753Z,37.50
2019-01-30T19:50:56.026Z,45.30
2019-01-30T19:53:08.475Z,40.30
2019-01-30T19:55:13.475Z,37.53
2019-01-30T19:57:20.796Z,38.17
2019-01-30T19:59:26.042Z,35.90
2019-01-30T20:01:36.267Z,34.83
2019-01-30T20:03:40.885Z,34.03
2019-01-30T20:05:47.157Z,35.83
2019-01-30T20:07:52.780Z,35.33
2019-01-30T20:09:59.017Z,33.33
2019-01-30T20:12:04.467Z,33.20
2019-01-30T20:14:09.385Z,33.93
2019-01-30T20:16:14.332Z,33.43
2019-01-30T20:18:19.365Z,36.80
2019-01-30T20:20:24.092Z,35.83
2019-01-30T20:22:28.904Z,33.30
2019-01-30T20:25:43.834Z,36.00
2019-01-30T20:27:49.466Z,41.10
2019-01-30T20:29:54.718Z,43.77
2019-01-30T20:31:59.750Z,36.77
2019-01-30T20:34:10.315Z,37.20
2019-01-30T20:36:11.832Z,38.67
2019-01-30T20:41:30.703Z,34.67
2019-01-30T20:43:35.473Z,37.27
2019-01-30T20:45:44.827Z,38.63
2019-01-30T20:47:50.248Z,38.27
2019-01-30T20:49:56.127Z,37.73
2019-01-30T20:52:01.067Z,37.00
2019-01-30T20:54:06.349Z,37.23
2019-01-30T20:56:12.144Z,32.03
2019-01-30T20:58:18.308Z,49.73
2019-01-30T21:00:28.259Z,69.20
2019-01-30T21:02:36.445Z,42.23
2019-01-30T21:04:41.389Z,167.17
2019-01-30T21:06:46.361Z,53.40
2019-01-30T21:08:51.101Z,66.60
2019-01-30T21:10:56.243Z,52.17
2019-01-30T21:13:01.392Z,36.13
2019-01-30T21:15:07.118Z,45.70
2019-01-30T21:17:14.106Z,42.47
2019-01-30T21:19:20.309Z,40.87
2019-01-30T21:21:25.441Z,38.87
2019-01-30T21:23:30.209Z,37.57
2019-01-30T21:25:35.051Z,27.70
2019-01-30T21:27:39.949Z,27.80
2019-01-30T21:29:44.742Z,30.57
2019-01-30T21:31:50.247Z,39.57
2019-01-30T21:33:55.117Z,32.70
2019-01-30T21:36:07.880Z,36.80
2019-01-30T21:38:12.730Z,36.90
2019-01-30T21:40:18.064Z,37.07
2019-01-30T21:42:22.954Z,44.33
2019-01-30T21:44:27.874Z,32.63
2019-01-30T21:46:33.008Z,35.57
2019-01-30T21:48:37.968Z,40.27
2019-01-30T21:50:43.193Z,51.80
2019-01-30T21:52:48.245Z,38.93
2019-01-30T21:54:53.083Z,41.13
2019-01-30T21:56:57.990Z,38.87
2019-01-30T21:59:02.942Z,38.10
2019-01-30T22:01:07.931Z,39.23
2019-01-30T22:03:13.312Z,46.33
2019-01-30T22:05:18.449Z,41.37
2019-01-30T22:07:24.088Z,30.80
2019-01-30T22:09:29.087Z,35.87
2019-01-30T22:11:34.203Z,35.90
2019-01-30T22:13:39.760Z,35.40
2019-01-30T22:15:45.305Z,32.37
2019-01-30T22:17:51.542Z,37.77
2019-01-30T22:19:57.039Z,38.13
2019-01-30T22:22:02.316Z,32.00
2019-01-30T22:24:07.884Z,26.87
2019-01-30T22:26:13.288Z,40.93
2019-01-30T22:28:18.491Z,33.07
2019-01-30T22:30:28.543Z,38.20
2019-01-30T22:32:34.181Z,30.53
2019-01-30T22:34:43.163Z,32.77
2019-01-30T22:36:49.003Z,34.00
2019-01-30T22:38:58.097Z,36.80
2019-01-30T22:41:10.180Z,29.17
2019-01-30T22:43:17.894Z,31.20
2019-01-30T22:45:24.755Z,30.57
2019-01-30T22:47:49.542Z,28.90
2019-01-30T22:50:12.788Z,40.03
2019-01-30T22:52:20.137Z,34.50
2019-01-30T22:54:28.760Z,33.83
2019-01-30T22:56:34.323Z,25.80
2019-01-30T22:58:39.152Z,29.80
2019-01-30T23:01:02.740Z,31.30
2019-01-30T23:03:07.817Z,30.50
2019-01-30T23:05:43.725Z,29.57
2019-01-30T23:08:28.963Z,28.13
2019-01-30T23:10:58.094Z,22.27
2019-01-30T23:13:29.566Z,25.47
2019-01-30T23:15:59.920Z,32.13
2019-01-30T23:18:25.676Z,29.93
2019-01-30T23:20:42.954Z,28.60
2019-01-30T23:23:12.294Z,32.90
2019-01-30T23:26:15.900Z,27.63
2019-01-30T23:29:10.602Z,33.57
2019-01-30T23:31:42.285Z,26.93
2019-01-30T23:34:29.651Z,27.83
2019-01-30T23:37:18.197Z,27.30
2019-01-30T23:40:09.829Z,27.53
2019-01-30T23:42:38.047Z,27.67
2019-01-30T23:45:19.710Z,28.13
2019-01-30T23:48:20.217Z,25.77
2019-01-30T23:50:34.003Z,25.00
2019-01-30T23:53:18.125Z,30.83
2019-01-30T23:55:50.971Z,31.83
2019-01-30T23:58:32.628Z,29.00
